Time;durP1;ratioP1;P1;durP2;ratioP2;P2;SDS_P1;SDS_P2;PMS_P1;PMS_P2;Temp;Humidity;BMP_temperature;BMP_pressure;BME280_temperature;BME280_humidity;BME280_pressure;Samples;Min_cycle;Max_cycle;Signal;HPM_P1;HPM_P2
2024/01/13 00:02:18;;;;;;;19.42;11.55;;;;;;;-142.91;100.00;56616.03;5049480;28;20262;-74
2024/01/13 00:04:45;;;;;;;25.23;11.52;;;;;;;-142.91;100.00;56616.03;5046583;28;20297;-78
2024/01/13 00:07:11;;;;;;;20.00;10.75;;;;;;;;;;5043025;28;20459;-75
2024/01/13 00:09:38;;;;;;;20.00;10.65;;;;;;;-142.91;100.00;56616.03;5042544;28;20285;-75
2024/01/13 00:12:06;;;;;;;18.23;9.67;;;;;;;-142.91;100.00;56616.03;5042466;28;20345;-75
2024/01/13 00:14:33;;;;;;;22.07;11.13;;;;;;;-142.91;100.00;56616.03;5039317;28;20243;-77
2024/01/13 00:16:59;;;;;;;21.70;10.37;;;;;;;-142.91;100.00;56616.03;5038304;28;20207;-75
2024/01/13 00:19:27;;;;;;;18.58;10.02;;;;;;;-142.91;100.00;56616.03;5001582;28;20223;-74
2024/01/13 00:21:54;;;;;;;21.10;10.18;;;;;;;-142.91;100.00;56616.03;5040592;28;20353;-77
2024/01/13 00:24:20;;;;;;;19.65;10.00;;;;;;;-142.91;100.00;56616.03;5048389;28;20298;-74
2024/01/13 00:26:47;;;;;;;20.70;10.30;;;;;;;-142.91;100.00;56616.03;5033595;28;20302;-76
2024/01/13 00:29:13;;;;;;;19.65;10.63;;;;;;;-142.91;100.00;56616.03;5049661;28;20274;-78
2024/01/13 00:31:40;;;;;;;20.77;9.95;;;;;;;24.55;100.00;56616.03;5027901;28;20290;-74
2024/01/13 00:34:07;;;;;;;18.02;10.70;;;;;;;-142.91;100.00;56616.03;5017987;28;20345;-76
2024/01/13 00:36:35;;;;;;;18.23;9.70;;;;;;;-142.91;100.00;56616.03;5025528;28;20393;-78
2024/01/13 00:39:02;;;;;;;19.85;10.05;;;;;;;-142.91;100.00;56616.03;5027782;28;20791;-72
2024/01/13 00:41:28;;;;;;;19.65;9.55;;;;;;;-142.91;100.00;56616.03;5029103;28;21133;-78
2024/01/13 00:43:55;;;;;;;23.15;10.18;;;;;;;-142.91;100.00;56616.03;5032319;28;20297;-76
2024/01/13 00:46:22;;;;;;;12.93;8.27;;;;;;;-142.91;100.00;56616.03;5028910;28;20207;-79
2024/01/13 00:48:48;;;;;;;17.73;9.10;;;;;;;-142.91;100.00;56616.03;5026360;28;20286;-75
2024/01/13 00:51:15;;;;;;;15.30;9.85;;;;;;;-142.91;100.00;56616.03;5031573;28;20620;-74
2024/01/13 00:53:43;;;;;;;17.73;9.07;;;;;;;-142.91;100.00;56616.03;5026551;28;21892;-77
2024/01/13 00:56:10;;;;;;;21.47;10.63;;;;;;;-142.91;100.00;56616.03;5028587;28;20304;-79
2024/01/13 00:58:37;;;;;;;21.17;10.15;;;;;;;-142.91;100.00;56616.03;5043392;28;20318;-80
2024/01/13 01:01:04;;;;;;;19.13;9.93;;;;;;;;;;5045699;28;20289;-78
2024/01/13 01:03:30;;;;;;;15.83;9.07;;;;;;;-142.91;100.00;56616.03;5050675;28;20206;-80
2024/01/13 01:05:58;;;;;;;16.95;10.27;;;;;;;;;;5051763;28;20199;-81
2024/01/13 01:08:25;;;;;;;16.90;9.40;;;;;;;-142.91;100.00;56616.03;5052828;28;20214;-82
2024/01/13 01:10:53;;;;;;;21.40;9.30;;;;;;;-142.91;100.00;56616.03;5047149;28;20206;-79
2024/01/13 01:13:20;;;;;;;21.02;10.82;;;;;;;-142.91;100.00;56616.03;5044902;28;20195;-76
2024/01/13 01:15:46;;;;;;;19.83;9.83;;;;;;;-142.91;100.00;56616.03;5040126;28;20202;-79
2024/01/13 01:18:13;;;;;;;21.65;9.93;;;;;;;-142.91;100.00;56616.03;5045106;28;20300;-78
2024/01/13 01:20:40;;;;;;;16.58;9.60;;;;;;;-142.91;100.00;56616.03;5059450;28;20232;-80
2024/01/13 01:23:06;;;;;;;18.45;10.27;;;;;;;;;;5061956;28;20271;-79
2024/01/13 01:25:32;;;;;;;19.97;10.37;;;;;;;;;;5061675;28;20743;-79
2024/01/13 01:28:00;;;;;;;23.43;10.97;;;;;;;-142.91;100.00;56616.03;5051717;28;20282;-81
2024/01/13 01:30:28;;;;;;;18.93;9.97;;;;;;;-142.91;100.00;56616.03;5045475;28;20241;-76
2024/01/13 01:32:54;;;;;;;20.35;10.25;;;;;;;;;;5047435;28;20294;-78
2024/01/13 01:35:21;;;;;;;21.60;10.52;;;;;;;-142.91;100.00;56616.03;5047950;28;20294;-78
2024/01/13 01:37:47;;;;;;;18.63;9.48;;;;;;;-142.91;100.00;56616.03;5045250;28;20658;-77
2024/01/13 01:40:15;;;;;;;22.38;11.00;;;;;;;-142.91;100.00;56616.03;5050351;28;20231;-79
2024/01/13 01:42:42;;;;;;;29.33;11.07;;;;;;;;;;5048817;28;20369;-77
2024/01/13 01:45:10;;;;;;;23.50;11.43;;;;;;;-142.91;100.00;56616.03;5047387;28;20650;-79
2024/01/13 01:47:40;;;;;;;20.20;10.70;;;;;;;-142.91;100.00;56616.03;5048193;28;20245;-76
2024/01/13 01:50:09;;;;;;;25.60;12.18;;;;;;;-142.91;100.00;56616.03;5047187;28;20297;-79
2024/01/13 01:52:36;;;;;;;19.17;9.98;;;;;;;-142.91;100.00;56616.03;5046003;28;20207;-76
2024/01/13 01:55:04;;;;;;;21.55;10.40;;;;;;;-142.91;100.00;56616.03;5047036;28;20325;-77
2024/01/13 01:57:31;;;;;;;18.85;9.32;;;;;;;-142.91;100.00;56616.03;5053598;28;20202;-78
2024/01/13 01:59:59;;;;;;;20.00;11.07;;;;;;;-142.91;100.00;56616.03;5053418;28;20297;-79
2024/01/13 02:02:27;;;;;;;23.35;10.20;;;;;;;-142.91;100.00;56616.03;5052635;28;20282;-77
2024/01/13 02:04:54;;;;;;;20.90;10.80;;;;;;;;;;5048491;28;20286;-78
2024/01/13 02:07:21;;;;;;;22.93;12.57;;;;;;;-142.91;100.00;56616.03;5050264;28;20194;-80
2024/01/13 02:09:48;;;;;;;22.33;10.93;;;;;;;-142.91;100.00;56616.03;5048851;28;20256;-78
2024/01/13 02:12:14;;;;;;;22.20;11.57;;;;;;;-142.91;100.00;56616.03;5048607;28;20309;-75
2024/01/13 02:14:41;;;;;;;19.52;11.57;;;;;;;-142.91;100.00;56616.03;5043862;28;20282;-80
2024/01/13 02:17:09;;;;;;;23.92;11.05;;;;;;;-142.91;100.00;56616.03;5059388;28;20289;-80
2024/01/13 02:19:36;;;;;;;18.65;9.52;;;;;;;-142.91;100.00;56616.03;5062220;28;20309;-80
2024/01/13 02:22:05;;;;;;;22.00;10.20;;;;;;;-142.91;100.00;56616.03;5065569;28;20340;-80
2024/01/13 02:24:32;;;;;;;24.00;11.25;;;;;;;-142.91;100.00;56616.03;5060164;28;20669;-78
2024/01/13 02:26:58;;;;;;;26.55;11.90;;;;;;;-142.91;100.00;56616.03;5049393;28;20338;-81
2024/01/13 02:29:25;;;;;;;27.70;11.82;;;;;;;-142.91;100.00;56616.03;5065080;28;20640;-77
2024/01/13 02:31:51;;;;;;;23.35;11.85;;;;;;;-142.91;100.00;56616.03;5066912;28;20267;-78
2024/01/13 02:34:18;;;;;;;26.55;11.88;;;;;;;-142.91;100.00;56616.03;5064666;28;20309;-79
2024/01/13 02:36:45;;;;;;;22.10;11.60;;;;;;;-142.91;100.00;56616.03;5055850;28;20234;-82
2024/01/13 02:39:13;;;;;;;23.10;11.25;;;;;;;-142.91;100.00;56616.03;5066026;28;20258;-82
2024/01/13 02:41:39;;;;;;;22.63;11.43;;;;;;;-142.91;100.00;56616.03;5060588;28;20351;-79
2024/01/13 02:44:06;;;;;;;23.60;10.37;;;;;;;-142.91;100.00;56616.03;5065144;28;20735;-79
2024/01/13 02:46:33;;;;;;;25.13;11.33;;;;;;;-142.91;100.00;56616.03;5059212;28;20286;-77
2024/01/13 02:49:01;;;;;;;25.17;12.02;;;;;;;-142.91;100.00;56616.03;5048884;28;20299;-77
2024/01/13 02:51:27;;;;;;;21.55;10.88;;;;;;;-142.91;100.00;56616.03;5049955;28;20230;-76
2024/01/13 02:53:54;;;;;;;25.65;11.57;;;;;;;-142.91;100.00;56616.03;5049635;28;20665;-78
2024/01/13 02:56:22;;;;;;;25.80;13.38;;;;;;;-142.91;100.00;56616.03;5048994;28;20207;-79
2024/01/13 02:58:49;;;;;;;21.83;11.70;;;;;;;-142.91;100.00;56616.03;5050682;28;20242;-79
2024/01/13 03:01:17;;;;;;;21.95;11.73;;;;;;;-142.91;100.00;56616.03;5049401;28;20764;-80
2024/01/13 03:03:44;;;;;;;23.10;12.40;;;;;;;-142.91;100.00;56616.03;5051709;28;20210;-80
2024/01/13 03:06:11;;;;;;;24.58;11.73;;;;;;;-142.91;100.00;56616.03;5050044;28;20709;-80
2024/01/13 03:08:37;;;;;;;22.55;10.93;;;;;;;-142.91;100.00;56616.03;5047206;28;20294;-80
2024/01/13 03:11:04;;;;;;;21.25;11.68;;;;;;;-142.91;100.00;56616.03;5045114;28;20281;-82
2024/01/13 03:13:32;;;;;;;24.45;11.48;;;;;;;-142.91;100.00;56616.03;5033053;28;20302;-80
2024/01/13 03:15:59;;;;;;;22.57;11.77;;;;;;;-142.91;100.00;56616.03;5033637;28;20298;-76
2024/01/13 03:18:26;;;;;;;23.20;11.32;;;;;;;-142.91;100.00;56616.03;5036523;28;20294;-74
2024/01/13 03:20:53;;;;;;;25.17;11.88;;;;;;;-142.91;100.00;56616.03;5036986;28;20325;-76
2024/01/13 03:23:19;;;;;;;18.80;10.55;;;;;;;-142.91;100.00;56616.03;5037326;28;20719;-74
2024/01/13 03:25:46;;;;;;;20.30;10.15;;;;;;;-142.91;100.00;56616.03;5038029;28;20639;-81
2024/01/13 03:28:12;;;;;;;21.58;10.32;;;;;;;-142.91;100.00;56616.03;5041990;28;20374;-80
2024/01/13 03:30:40;;;;;;;28.83;10.20;;;;;;;-142.91;100.00;56616.03;5052524;28;20629;-75
2024/01/13 03:33:07;;;;;;;23.58;11.63;;;;;;;-142.91;100.00;56616.03;5052908;28;20249;-78
2024/01/13 03:35:34;;;;;;;21.45;10.35;;;;;;;-142.91;100.00;56616.03;5052693;28;20285;-80
2024/01/13 03:38:00;;;;;;;16.50;10.68;;;;;;;-142.91;100.00;56616.03;5064867;28;20711;-81
2024/01/13 03:40:27;;;;;;;25.05;10.65;;;;;;;-142.91;100.00;56616.03;5065148;28;20314;-81
2024/01/13 03:42:53;;;;;;;17.50;11.32;;;;;;;-142.91;100.00;56616.03;5064678;28;20238;-82
2024/01/13 03:45:20;;;;;;;19.17;10.95;;;;;;;-142.91;100.00;56616.03;5059154;28;20284;-74
2024/01/13 03:47:48;;;;;;;19.73;9.87;;;;;;;-142.91;100.00;56616.03;5062367;28;20702;-75
2024/01/13 03:50:15;;;;;;;13.98;8.07;;;;;;;-142.91;100.00;56616.03;5059624;28;20735;-81
2024/01/13 03:52:41;;;;;;;21.83;11.65;;;;;;;-142.91;100.00;56616.03;5059707;28;20234;-75
2024/01/13 03:55:08;;;;;;;22.38;9.60;;;;;;;;;;5063247;28;21743;-79
2024/01/13 03:57:35;;;;;;;23.80;11.13;;;;;;;;;;5063106;28;20298;-79
2024/01/13 04:00:02;;;;;;;24.23;12.60;;;;;;;-142.91;100.00;56616.03;5063222;28;20759;-79
2024/01/13 04:02:29;;;;;;;18.23;10.75;;;;;;;-142.91;100.00;56616.03;5068650;28;21086;-77
2024/01/13 04:04:57;;;;;;;19.08;11.65;;;;;;;-142.91;100.00;56616.03;5047833;28;20298;-78
2024/01/13 04:07:24;;;;;;;26.27;12.68;;;;;;;-142.91;100.00;56616.03;5048866;28;20302;-77
2024/01/13 04:09:50;;;;;;;27.48;11.77;;;;;;;-142.91;100.00;56616.03;5047041;28;20286;-73
2024/01/13 04:12:17;;;;;;;21.73;11.93;;;;;;;-142.91;100.00;56616.03;5047590;28;20279;-78
2024/01/13 04:14:44;;;;;;;19.93;11.37;;;;;;;-142.91;100.00;56616.03;5049136;28;20257;-80
2024/01/13 04:17:10;;;;;;;27.45;12.13;;;;;;;-142.91;100.00;56616.03;5049278;28;20210;-76
2024/01/13 04:19:37;;;;;;;19.30;11.13;;;;;;;-142.91;100.00;56616.03;5053514;28;20278;-79
2024/01/13 04:22:05;;;;;;;24.15;11.70;;;;;;;-142.91;100.00;56616.03;5051484;28;20305;-71
2024/01/13 04:24:32;;;;;;;23.87;11.90;;;;;;;-142.91;100.00;56616.03;5050988;28;20218;-79
2024/01/13 04:26:59;;;;;;;27.73;12.40;;;;;;;-142.91;100.00;56616.03;5061116;28;20225;-78
2024/01/13 04:29:25;;;;;;;21.80;11.38;;;;;;;-142.91;100.00;56616.03;5060872;28;20296;-80
2024/01/13 04:31:52;;;;;;;25.23;12.03;;;;;;;-142.91;100.00;56616.03;5049261;28;20267;-78
2024/01/13 04:34:18;;;;;;;22.77;11.95;;;;;;;-142.91;100.00;56616.03;5047259;28;20249;-74
2024/01/13 04:36:45;;;;;;;25.43;11.37;;;;;;;-142.91;100.00;56616.03;5050604;28;20235;-80
2024/01/13 04:39:13;;;;;;;20.63;11.07;;;;;;;-142.91;100.00;56616.03;5048432;28;20330;-79
2024/01/13 04:41:41;;;;;;;24.33;12.57;;;;;;;-142.91;100.00;56616.03;5050045;28;20210;-77
2024/01/13 04:44:08;;;;;;;23.35;11.18;;;;;;;-142.91;100.00;56616.03;5051667;28;20239;-75
2024/01/13 04:46:35;;;;;;;18.50;10.77;;;;;;;-142.91;100.00;56616.03;5048405;28;20295;-77
2024/01/13 04:49:02;;;;;;;21.33;11.95;;;;;;;-142.91;100.00;56616.03;5061906;28;20241;-77
2024/01/13 04:51:28;;;;;;;22.85;12.02;;;;;;;-142.91;100.00;56616.03;5064128;28;20198;-77
2024/01/13 04:53:56;;;;;;;20.70;11.48;;;;;;;-142.91;100.00;56616.03;5066961;28;20285;-77
2024/01/13 04:56:24;;;;;;;24.85;11.07;;;;;;;-142.91;100.00;56616.03;5064003;28;20208;-79
2024/01/13 04:58:51;;;;;;;17.52;11.35;;;;;;;;;;5063447;28;20699;-79
2024/01/13 05:01:17;;;;;;;26.87;11.20;;;;;;;-142.91;100.00;56616.03;5055279;28;20226;-78
2024/01/13 05:03:44;;;;;;;20.45;11.07;;;;;;;;;;5052919;28;20676;-82
2024/01/13 05:06:10;;;;;;;26.13;11.18;;;;;;;-142.91;100.00;56616.03;5065562;28;20222;-79
2024/01/13 05:08:37;;;;;;;22.30;11.10;;;;;;;-142.91;100.00;56616.03;5062001;28;20282;-77
2024/01/13 05:11:04;;;;;;;22.15;12.65;;;;;;;-142.91;100.00;56616.03;5063022;28;20234;-80
2024/01/13 05:13:32;;;;;;;22.03;12.07;;;;;;;-142.91;100.00;56616.03;5063659;28;20206;-80
2024/01/13 05:15:58;;;;;;;21.33;11.53;;;;;;;-142.91;100.00;56616.03;5062038;28;20218;-77
2024/01/13 05:18:25;;;;;;;22.80;11.82;;;;;;;-142.91;100.00;56616.03;5065623;28;20671;-75
2024/01/13 05:20:52;;;;;;;24.17;10.50;;;;;;;-142.91;100.00;56616.03;5062528;28;20262;-79
2024/01/13 05:23:19;;;;;;;26.85;11.68;;;;;;;-142.91;100.00;56616.03;5065891;28;20234;-78
2024/01/13 05:25:45;;;;;;;19.55;11.48;;;;;;;-142.91;100.00;56616.03;5061998;28;20237;-79
2024/01/13 05:28:12;;;;;;;24.67;11.63;;;;;;;-142.91;100.00;56616.03;5065959;28;20289;-81
2024/01/13 05:30:40;;;;;;;27.30;11.00;;;;;;;-142.91;100.00;56616.03;5062673;28;20692;-81
2024/01/13 05:33:06;;;;;;;26.05;10.60;;;;;;;-142.91;100.00;56616.03;5067164;28;20289;-78
2024/01/13 05:35:33;;;;;;;27.40;12.18;;;;;;;-142.91;100.00;56616.03;5059547;28;20404;-74
2024/01/13 05:38:00;;;;;;;27.07;11.30;;;;;;;-142.91;100.00;56616.03;5052499;28;20644;-79
2024/01/13 05:40:26;;;;;;;22.95;10.80;;;;;;;;;;5057116;28;20317;-81
2024/01/13 05:42:53;;;;;;;23.20;10.67;;;;;;;-142.91;100.00;56616.03;5054892;28;20703;-78
2024/01/13 05:45:19;;;;;;;22.80;10.43;;;;;;;-142.91;100.00;56616.03;5052763;28;20288;-75
2024/01/13 05:47:47;;;;;;;19.27;10.60;;;;;;;-142.91;100.00;56616.03;5053959;28;20286;-81
2024/01/13 05:50:14;;;;;;;20.15;10.25;;;;;;;-142.91;100.00;56616.03;5067623;28;20730;-78
2024/01/13 05:52:40;;;;;;;19.17;10.80;;;;;;;-142.91;100.00;56616.03;5070197;28;20285;-74
2024/01/13 05:55:08;;;;;;;19.10;9.80;;;;;;;-142.91;100.00;56616.03;5068038;28;20281;-80
2024/01/13 05:57:34;;;;;;;19.07;10.27;;;;;;;-142.91;100.00;56616.03;5067409;28;20233;-75
2024/01/13 06:00:01;;;;;;;23.30;9.80;;;;;;;-142.91;100.00;56616.03;5067967;28;20289;-80
2024/01/13 06:02:27;;;;;;;20.93;10.30;;;;;;;-142.91;100.00;56616.03;5066278;28;20261;-80
2024/01/13 06:04:55;;;;;;;22.27;10.40;;;;;;;-142.91;100.00;56616.03;5065062;28;20566;-78
2024/01/13 06:07:22;;;;;;;20.80;9.50;;;;;;;-142.91;100.00;56616.03;5064674;28;20292;-74
2024/01/13 06:09:49;;;;;;;16.17;8.57;;;;;;;-142.91;100.00;56616.03;5064209;28;20226;-78
2024/01/13 06:12:15;;;;;;;19.67;9.68;;;;;;;-142.91;100.00;56616.03;5065320;28;20743;-78
2024/01/13 06:14:42;;;;;;;18.30;10.13;;;;;;;-142.91;100.00;56616.03;5061610;28;20317;-80
2024/01/13 06:17:09;;;;;;;18.70;11.23;;;;;;;-142.91;100.00;56616.03;5065782;28;20217;-76
2024/01/13 06:19:36;;;;;;;28.63;11.03;;;;;;;-142.91;100.00;56616.03;5062770;28;20226;-78
2024/01/13 06:22:04;;;;;;;20.87;9.93;;;;;;;-142.91;100.00;56616.03;5065426;28;20664;-83
2024/01/13 06:24:31;;;;;;;25.40;11.40;;;;;;;-142.91;100.00;56616.03;5065067;28;20565;-80
2024/01/13 06:26:57;;;;;;;18.10;10.40;;;;;;;-142.91;100.00;56616.03;5066350;28;20285;-81
2024/01/13 06:29:24;;;;;;;20.85;9.90;;;;;;;-142.91;100.00;56616.03;5064404;28;20634;-81
2024/01/13 06:31:51;;;;;;;17.73;11.43;;;;;;;-142.91;100.00;56616.03;5065821;28;20206;-78
2024/01/13 06:34:17;;;;;;;18.43;9.67;;;;;;;-142.91;100.00;56616.03;5064948;28;20294;-82
2024/01/13 06:36:44;;;;;;;21.17;10.90;;;;;;;;;;5054536;28;20206;-80
2024/01/13 06:39:12;;;;;;;20.92;10.73;;;;;;;-142.91;100.00;56616.03;5050009;28;20285;-76
2024/01/13 06:41:39;;;;;;;20.83;11.33;;;;;;;-142.91;100.00;56616.03;5052392;28;20314;-79
2024/01/13 06:44:05;;;;;;;20.47;9.60;;;;;;;-142.91;100.00;56616.03;5049519;28;20752;-80
2024/01/13 06:46:32;;;;;;;18.03;10.27;;;;;;;-142.91;100.00;56616.03;5051044;28;20681;-81
2024/01/13 06:48:59;;;;;;;17.17;9.38;;;;;;;-142.91;100.00;56616.03;5049735;28;20295;-80
2024/01/13 06:51:25;;;;;;;24.80;10.50;;;;;;;-142.91;100.00;56616.03;5052184;28;20291;-79
2024/01/13 06:53:52;;;;;;;19.15;11.15;;;;;;;-142.91;100.00;56616.03;5049903;28;20195;-77
2024/01/13 06:56:20;;;;;;;23.10;10.88;;;;;;;-142.91;100.00;56616.03;5050036;28;20297;-79
2024/01/13 06:58:46;;;;;;;23.63;10.80;;;;;;;-142.91;100.00;56616.03;5038392;28;20293;-80
2024/01/13 07:01:14;;;;;;;15.43;10.02;;;;;;;-142.91;100.00;56616.03;5017049;28;20314;-71
2024/01/13 07:03:42;;;;;;;20.63;10.95;;;;;;;-142.91;100.00;56616.03;5022068;28;20207;-70
2024/01/13 07:06:08;;;;;;;22.27;10.38;;;;;;;-142.91;100.00;56616.03;5027244;28;20286;-76
2024/01/13 07:08:35;;;;;;;27.75;10.93;;;;;;;;;;5033901;28;20843;-74
2024/01/13 07:11:01;;;;;;;18.92;10.00;;;;;;;-142.91;100.00;56616.03;5028238;28;20338;-73
2024/01/13 07:13:30;;;;;;;21.20;11.13;;;;;;;-142.91;100.00;56616.03;5034178;28;20285;-79
2024/01/13 07:15:56;;;;;;;21.40;12.07;;;;;;;-142.91;100.00;56616.03;5027562;28;21816;-75
2024/01/13 07:18:23;;;;;;;17.48;11.50;;;;;;;-142.91;100.00;56616.03;5034773;28;20302;-77
2024/01/13 07:20:51;;;;;;;18.77;10.68;;;;;;;-142.91;100.00;56616.03;5038885;28;20330;-77
2024/01/13 07:23:18;;;;;;;24.38;9.98;;;;;;;-142.91;100.00;56616.03;5053883;28;20264;-83
2024/01/13 07:25:45;;;;;;;20.13;11.33;;;;;;;-142.91;100.00;56616.03;5057534;28;20291;-85
2024/01/13 07:28:11;;;;;;;20.25;10.85;;;;;;;-142.91;100.00;56616.03;5057035;28;20758;-80
2024/01/13 07:30:39;;;;;;;20.63;11.15;;;;;;;-142.91;100.00;56616.03;5059924;28;20238;-83
2024/01/13 07:33:06;;;;;;;23.15;12.15;;;;;;;-142.91;100.00;56616.03;5057032;28;20248;-81
2024/01/13 07:35:33;;;;;;;30.95;13.88;;;;;;;-142.91;100.00;56616.03;5056049;28;20299;-83
2024/01/13 07:38:00;;;;;;;26.35;12.65;;;;;;;-142.91;100.00;56616.03;5057624;28;20251;-80
2024/01/13 07:40:27;;;;;;;27.83;13.80;;;;;;;-142.91;100.00;56616.03;5061490;28;20257;-83
2024/01/13 07:42:54;;;;;;;29.75;12.77;;;;;;;-142.91;100.00;56616.03;5058977;28;20278;-81
2024/01/13 07:45:21;;;;;;;34.80;16.73;;;;;;;-142.91;100.00;56616.03;5060268;28;20593;-78
2024/01/13 07:47:49;;;;;;;26.60;13.90;;;;;;;-142.91;100.00;56616.03;5058942;28;20633;-83
2024/01/13 07:50:16;;;;;;;42.33;19.38;;;;;;;-142.91;100.00;56616.03;5056797;28;20476;-83
2024/01/13 07:52:43;;;;;;;35.55;17.55;;;;;;;-142.91;100.00;56616.03;5053698;28;20290;-82
2024/01/13 07:55:10;;;;;;;27.38;14.18;;;;;;;;;;5056791;28;20359;-83
2024/01/13 07:57:37;;;;;;;24.15;12.60;;;;;;;-142.91;100.00;56616.03;5033895;28;20211;-76
2024/01/13 08:00:05;;;;;;;21.95;11.88;;;;;;;-142.91;100.00;56616.03;5071952;22;20277;-82
2024/01/13 08:02:32;;;;;;;21.45;11.15;;;;;;;-142.91;100.00;56616.03;5072548;28;20213;-80
2024/01/13 08:05:00;;;;;;;20.23;10.50;;;;;;;-142.91;100.00;56616.03;5073951;28;20293;-80
2024/01/13 08:07:26;;;;;;;20.15;10.52;;;;;;;-142.91;100.00;56616.03;5074964;28;20225;-74
2024/01/13 08:09:53;;;;;;;17.20;9.85;;;;;;;23.25;100.00;56616.03;5066465;28;20230;-82
2024/01/13 08:12:20;;;;;;;20.52;10.98;;;;;;;-142.91;100.00;56616.03;5070458;28;20297;-74
2024/01/13 08:14:46;;;;;;;15.50;9.48;;;;;;;-142.91;100.00;56616.03;5074009;28;20924;-79
2024/01/13 08:17:13;;;;;;;21.42;11.32;;;;;;;-142.91;100.00;56616.03;5073700;28;20401;-81
2024/01/13 08:19:40;;;;;;;24.35;11.00;;;;;;;-142.91;100.00;56616.03;5076208;28;20678;-82
2024/01/13 08:22:08;;;;;;;21.13;11.02;;;;;;;-142.91;100.00;56616.03;5063248;28;20226;-82
2024/01/13 08:24:35;;;;;;;21.75;10.98;;;;;;;-142.91;100.00;56616.03;5061530;28;20293;-78
2024/01/13 08:27:01;;;;;;;23.35;11.48;;;;;;;-142.91;100.00;56616.03;5057988;28;21064;-79
2024/01/13 08:29:29;;;;;;;18.40;9.10;;;;;;;-142.91;100.00;56616.03;5061081;28;20755;-81
2024/01/13 08:31:56;;;;;;;16.17;9.98;;;;;;;-142.91;100.00;56616.03;5059350;28;20212;-82
2024/01/13 08:34:23;;;;;;;20.70;10.93;;;;;;;-142.91;100.00;56616.03;5057026;28;20232;-81
2024/01/13 08:36:49;;;;;;;20.02;10.32;;;;;;;-142.91;100.00;56616.03;5052839;28;20203;-79
2024/01/13 08:39:17;;;;;;;19.50;10.05;;;;;;;;;;5063444;28;20237;-81
2024/01/13 08:41:44;;;;;;;17.10;10.52;;;;;;;-142.91;100.00;56616.03;5060161;28;20309;-82
2024/01/13 08:44:11;;;;;;;19.30;10.23;;;;;;;-142.91;100.00;56616.03;5059884;28;20294;-75
2024/01/13 08:46:38;;;;;;;12.95;8.70;;;;;;;-142.91;100.00;56616.03;5055580;28;20198;-78
2024/01/13 08:49:05;;;;;;;16.45;8.70;;;;;;;-142.91;100.00;56616.03;5062430;28;20234;-81
2024/01/13 08:51:31;;;;;;;19.17;9.10;;;;;;;-142.91;100.00;56616.03;5059561;28;20856;-80
2024/01/13 08:53:57;;;;;;;36.38;19.35;;;;;;;-142.91;100.00;56616.03;5059994;28;20198;-81
2024/01/13 08:56:25;;;;;;;18.67;10.55;;;;;;;-142.91;100.00;56616.03;5061647;28;20654;-83
2024/01/13 08:58:52;;;;;;;19.77;11.25;;;;;;;-142.91;100.00;56616.03;5059833;28;20206;-83
2024/01/13 09:01:19;;;;;;;53.13;23.75;;;;;;;-142.91;100.00;56616.03;5060498;28;20304;-82
2024/01/13 09:03:46;;;;;;;26.35;13.77;;;;;;;-142.91;100.00;56616.03;5060127;28;20234;-80
2024/01/13 09:06:12;;;;;;;14.60;8.80;;;;;;;-142.91;100.00;56616.03;5050028;28;20205;-79
2024/01/13 09:08:39;;;;;;;14.38;8.35;;;;;;;-142.91;100.00;56616.03;5050621;28;20225;-82
2024/01/13 09:11:06;;;;;;;11.88;7.88;;;;;;;-142.91;100.00;56616.03;5053153;28;20224;-77
2024/01/13 09:13:34;;;;;;;14.57;9.50;;;;;;;-142.91;100.00;56616.03;5055141;28;20211;-81
2024/01/13 09:16:01;;;;;;;12.18;7.82;;;;;;;-142.91;100.00;56616.03;5056349;28;21152;-83
2024/01/13 09:18:27;;;;;;;13.02;8.30;;;;;;;-142.91;100.00;56616.03;5053399;28;20294;-78
2024/01/13 09:20:54;;;;;;;12.38;8.07;;;;;;;-142.91;100.00;56616.03;5049177;28;20682;-79
2024/01/13 09:23:21;;;;;;;17.38;8.90;;;;;;;-142.91;100.00;56616.03;5052097;28;20203;-80
2024/01/13 09:25:47;;;;;;;13.60;8.60;;;;;;;-142.91;100.00;56616.03;5050597;28;20238;-82
2024/01/13 09:28:14;;;;;;;12.57;8.27;;;;;;;-142.91;100.00;56616.03;5053023;28;20646;-82
2024/01/13 09:30:42;;;;;;;14.07;8.63;;;;;;;-142.91;100.00;56616.03;5059749;28;20281;-77
2024/01/13 09:33:09;;;;;;;15.13;8.18;;;;;;;-142.91;100.00;56616.03;5057063;28;20200;-81
2024/01/13 09:35:35;;;;;;;12.27;7.95;;;;;;;-142.91;100.00;56616.03;5052990;28;20932;-78
2024/01/13 09:38:02;;;;;;;13.32;7.60;;;;;;;-142.91;100.00;56616.03;5047421;28;20609;-81
2024/01/13 09:40:29;;;;;;;8.85;7.65;;;;;;;-142.91;100.00;56616.03;5050677;28;20293;-81
2024/01/13 09:43:06;;;;;;;12.15;7.25;;;;;;;-142.91;100.00;56616.03;5051104;28;20772;-79
2024/01/13 09:45:34;;;;;;;12.45;8.75;;;;;;;-142.91;100.00;56616.03;5052082;28;20211;-81
2024/01/13 09:48:04;;;;;;;10.88;7.30;;;;;;;;;;5051574;28;20231;-81
2024/01/13 09:50:31;;;;;;;11.82;8.35;;;;;;;-142.91;100.00;56616.03;5059096;28;20711;-83
2024/01/13 09:52:58;;;;;;;13.15;8.45;;;;;;;;;;5056021;28;20234;-78
2024/01/13 09:55:28;;;;;;;9.25;7.53;;;;;;;-142.91;100.00;56616.03;5061520;28;20282;-82
2024/01/13 09:57:54;;;;;;;8.57;6.88;;;;;;;-142.91;100.00;56616.03;5062223;28;20241;-79
2024/01/13 10:00:21;;;;;;;10.10;7.30;;;;;;;-142.91;100.00;56616.03;5054466;28;20266;-80
2024/01/13 10:02:48;;;;;;;14.07;7.53;;;;;;;-142.91;100.00;56616.03;5055976;28;20715;-81
2024/01/13 10:05:16;;;;;;;10.35;7.32;;;;;;;;;;5055038;28;20235;-79
2024/01/13 10:07:50;;;;;;;13.40;8.85;;;;;;;-142.91;100.00;56616.03;5050591;28;20206;-78
2024/01/13 10:10:17;;;;;;;10.65;7.25;;;;;;;-142.91;100.00;56616.03;5051283;28;20799;-82
2024/01/13 10:12:43;;;;;;;9.75;7.10;;;;;;;-142.91;100.00;56616.03;5051066;28;20289;-82
2024/01/13 10:15:15;;;;;;;10.85;7.57;;;;;;;-142.91;100.00;56616.03;5050478;28;20783;-81
2024/01/13 10:17:42;;;;;;;13.70;7.78;;;;;;;-142.91;100.00;56616.03;5054443;28;20231;-79
2024/01/13 10:20:12;;;;;;;13.90;7.60;;;;;;;-142.91;100.00;56616.03;5053731;28;20286;-78
2024/01/13 10:22:42;;;;;;;12.13;8.30;;;;;;;-142.91;100.00;56616.03;5055547;28;20218;-81
2024/01/13 10:25:08;;;;;;;12.55;8.02;;;;;;;-142.91;100.00;56616.03;5055388;28;20286;-78
2024/01/13 10:27:37;;;;;;;7.53;6.55;;;;;;;-142.91;100.00;56616.03;5058079;28;20245;-82
2024/01/13 10:30:07;;;;;;;10.68;7.20;;;;;;;-142.91;100.00;56616.03;5054485;28;20210;-78
2024/01/13 10:32:33;;;;;;;11.75;6.85;;;;;;;-142.91;100.00;56616.03;5055439;28;20203;-76
2024/01/13 10:35:00;;;;;;;8.13;6.00;;;;;;;-142.91;100.00;56616.03;5056348;28;20231;-82
2024/01/13 10:37:27;;;;;;;12.65;6.70;;;;;;;64.84;100.00;56616.03;5052119;28;20225;-79
2024/01/13 10:39:55;;;;;;;8.82;6.35;;;;;;;-142.91;100.00;56616.03;5059544;28;20595;-76
2024/01/13 10:42:26;;;;;;;10.65;7.43;;;;;;;-142.91;100.00;56616.03;5060531;28;20719;-79
2024/01/13 10:44:56;;;;;;;10.73;6.20;;;;;;;-142.91;100.00;56616.03;5062407;28;20664;-79
2024/01/13 10:47:30;;;;;;;11.18;6.80;;;;;;;-142.91;100.00;56616.03;5061883;28;20685;-83
2024/01/13 10:49:57;;;;;;;6.82;5.97;;;;;;;-142.91;100.00;56616.03;5059423;28;20206;-76
2024/01/13 10:52:27;;;;;;;15.40;10.23;;;;;;;;;;5058935;28;20199;-76
2024/01/13 10:54:57;;;;;;;13.43;8.48;;;;;;;-142.91;100.00;56616.03;5060879;28;20207;-82
2024/01/13 10:57:24;;;;;;;9.20;7.28;;;;;;;-142.91;100.00;56616.03;5058888;28;20209;-82
2024/01/13 10:59:53;;;;;;;11.30;7.47;;;;;;;-142.91;100.00;56616.03;5059670;28;20293;-81
2024/01/13 11:02:19;;;;;;;12.82;7.38;;;;;;;;;;5057291;28;20222;-82
2024/01/13 11:04:47;;;;;;;11.52;8.45;;;;;;;-142.91;100.00;56616.03;5061812;28;20238;-82
2024/01/13 11:07:14;;;;;;;13.80;6.22;;;;;;;-142.91;100.00;56616.03;5060018;28;20735;-80
2024/01/13 11:09:42;;;;;;;14.82;7.00;;;;;;;-142.91;100.00;56616.03;5059556;28;22075;-80